Time;durP1;ratioP1;P1;durP2;ratioP2;P2;SDS_P1;SDS_P2;PMS_P1;PMS_P2;Temp;Humidity;BMP_temperature;BMP_pressure;BME280_temperature;BME280_humidity;BME280_pressure;Samples;Min_cycle;Max_cycle;Signal;HPM_P1;HPM_P2
2024/01/12 00:01:54;;;;;;;;;;;;;;;;;;5026945;28;20004;-73
2024/01/12 00:04:19;;;;;;;;;;;;;;;;;;5026496;28;19944;-73
2024/01/12 00:06:45;;;;;;;;;;;;;;;;;;5031848;28;19925;-73
2024/01/12 00:09:11;;;;;;;;;;;;;;;;;;5030354;28;19917;-73
2024/01/12 00:11:36;;;;;;;;;;;;;;;;;;5034591;28;19917;-73
2024/01/12 00:14:01;;;;;;;;;;;;;;;;;;5026248;28;19936;-76
2024/01/12 00:16:26;;;;;;;;;;;;;;;;;;5026522;28;20523;-73
2024/01/12 00:18:51;;;;;;;;;;;;;;;;;;5026841;28;19928;-73
2024/01/12 00:21:16;;;;;;;;;;;;;;;;;;5035717;28;19921;-73
2024/01/12 00:23:41;;;;;;;;;;;;;;;;;;5026926;28;20297;-73
2024/01/12 00:26:06;;;;;;;;;;;;;;;;;;5026267;28;19944;-73
2024/01/12 00:28:32;;;;;;;;;;;;;;;;;;5025130;28;20417;-73
2024/01/12 00:30:57;;;;;;;;;;;;;;;;;;5031582;28;19956;-74
2024/01/12 00:33:22;;;;;;;;;;;;;;;;;;5027104;28;19924;-73
2024/01/12 00:35:47;;;;;;;;;;;;;;;;;;5032641;28;19928;-73
2024/01/12 00:38:13;;;;;;;;;;;;;;;;;;5024602;28;19936;-73
2024/01/12 00:40:38;;;;;;;;;;;;;;;;;;5026604;28;20000;-74
2024/01/12 00:43:03;;;;;;;;;;;;;;;;;;5026749;28;20385;-73
2024/01/12 00:45:28;;;;;;;;;;;;;;;;;;5033355;28;19925;-73
2024/01/12 00:47:53;;;;;;;;;;;;;;;;;;5033290;28;19956;-73
2024/01/12 00:50:18;;;;;;;;;;;;;;;;;;5043383;28;20023;-73
2024/01/12 00:52:43;;;;;;;;;;;;;;;;;;5028370;28;19935;-73
2024/01/12 00:55:09;;;;;;;;;;;;;;;;;;5031792;28;19929;-73
2024/01/12 00:57:34;;;;;;;;;;;;;;;;;;5035121;28;19921;-73
2024/01/12 00:59:59;;;;;;;;;;;;;;;;;;5043484;28;19925;-73
2024/01/12 01:02:24;;;;;;;;;;;;;;;;;;5032940;28;20029;-73
2024/01/12 01:04:49;;;;;;;;;;;;;;;;;;5051667;28;19939;-74
2024/01/12 01:07:14;;;;;;;;;;;;;;;;;;5040560;28;19925;-74
2024/01/12 01:09:39;;;;;;;;;;;;;;;;;;5039658;28;20012;-73
2024/01/12 01:12:05;;;;;;;;;;;;;;;;;;5035375;28;19959;-75
2024/01/12 01:14:30;;;;;;;;;;;;;;;;;;5030789;28;20397;-73
2024/01/12 01:16:55;;;;;;;;;;;;;;;;;;5037757;28;19917;-73
2024/01/12 01:19:20;;;;;;;;;;;;;;;;;;5041682;28;20301;-73
2024/01/12 01:21:45;;;;;;;;;;;;;;;;;;5031174;28;19921;-73
2024/01/12 01:24:10;;;;;;;;;;;;;;;;;;5039153;28;19925;-74
2024/01/12 01:26:36;;;;;;;;;;;;;;;;;;5034291;28;20297;-74
2024/01/12 01:29:01;;;;;;;;;;;;;;;;;;5031699;28;19929;-73
2024/01/12 01:31:26;;;;;;;;;;;;;;;;;;5031150;28;19917;-74
2024/01/12 01:33:51;;;;;;;;;;;;;;;;;;5031517;28;20474;-73
2024/01/12 01:36:16;;;;;;;;;;;;;;;;;;5030234;28;19928;-74
2024/01/12 01:38:41;;;;;;;;;;;;;;;;;;5031305;28;19925;-73
2024/01/12 01:41:06;;;;;;;;;;;;;;;;;;5031344;28;19920;-74
2024/01/12 01:43:31;;;;;;;;;;;;;;;;;;5030867;28;19921;-74
2024/01/12 01:45:56;;;;;;;;;;;;;;;;;;5031132;28;20421;-74
2024/01/12 01:48:21;;;;;;;;;;;;;;;;;;5030592;28;19960;-74
2024/01/12 01:50:47;;;;;;;;;;;;;;;;;;5032279;28;20013;-74
2024/01/12 01:53:12;;;;;;;;;;;;;;;;;;5031490;28;19928;-74
2024/01/12 01:55:37;;;;;;;;;;;;;;;;;;5031653;28;19921;-74
2024/01/12 01:58:02;;;;;;;;;;;;;;;;;;5037132;28;19921;-73
2024/01/12 02:00:27;;;;;;;;;;;;;;;;;;5031995;28;19925;-74
2024/01/12 02:02:53;;;;;;;;;;;;;;;;;;5036663;28;19913;-74
2024/01/12 02:05:18;;;;;;;;;;;;;;;;;;5037603;28;20081;-74
2024/01/12 02:07:43;;;;;;;;;;;;;;;;;;5030355;28;19925;-74
2024/01/12 02:10:08;;;;;;;;;;;;;;;;;;5030242;28;19921;-73
2024/01/12 02:12:33;;;;;;;;;;;;;;;;;;5038672;28;19920;-74
2024/01/12 02:14:58;;;;;;;;;;;;;;;;;;5038766;28;19928;-74
2024/01/12 02:17:23;;;;;;;;;;;;;;;;;;5029972;28;20438;-74
2024/01/12 02:19:48;;;;;;;;;;;;;;;;;;5029844;28;19936;-74
2024/01/12 02:22:13;;;;;;;;;;;;;;;;;;5035434;28;19925;-74
2024/01/12 02:24:38;;;;;;;;;;;;;;;;;;5030201;28;19921;-74
2024/01/12 02:27:04;;;;;;;;;;;;;;;;;;5030145;28;19921;-74
2024/01/12 02:29:29;;;;;;;;;;;;;;;-143.97;100.00;87209.31;5038060;28;20408;-74
2024/01/12 02:31:54;;;;;;;;;;;;;;;;;;5035812;28;19944;-74
2024/01/12 02:34:19;;;;;;;;;;;;;;;;;;5040882;28;19921;-74
2024/01/12 02:36:44;;;;;;;;;;;;;;;;;;5031800;28;19977;-74
2024/01/12 02:39:10;;;;;;;;;;;;;;;;;;5033263;28;20333;-73
2024/01/12 02:41:35;;;;;;;;;;;;;;;;;;5030577;28;19917;-74
2024/01/12 02:44:00;;;;;;;;;;;;;;;;;;5036109;28;19979;-74
2024/01/12 02:46:25;;;;;;;;;;;;;;;;;;5041000;28;20019;-74
2024/01/12 02:48:50;;;;;;;;;;;;;;;;;;5029532;28;19943;-74
2024/01/12 02:51:15;;;;;;;;;;;;;;;22.40;100.00;159243.69;5041309;28;20270;-74
2024/01/12 02:53:40;;;;;;;;;;;;;;;;;;5041269;28;19921;-74
2024/01/12 02:56:05;;;;;;;;;;;;;;;;;;5037966;28;19928;-74
2024/01/12 02:58:31;;;;;;;;;;;;;;;;;;5029396;28;19949;-74
2024/01/12 03:00:56;;;;;;;;;;;;;;;;;;5033980;28;20348;-74
2024/01/12 03:03:21;;;;;;;;;;;;;;;;;;5033307;28;19966;-74
2024/01/12 03:05:46;;;;;;;;;;;;;;;;;;5028588;28;19931;-74
2024/01/12 03:08:12;;;;;;;;;;;;;;;;;;5029130;28;19921;-74
2024/01/12 03:10:37;;;;;;;;;;;;;;;;;;5036941;28;20412;-73
2024/01/12 03:13:02;;;;;;;;;;;;;;;;;;5033584;28;20349;-73
2024/01/12 03:15:27;;;;;;;;;;;;;;;;;;5037537;28;19917;-73
2024/01/12 03:17:52;;;;;;;;;;;;;;;;;;5033792;28;20018;-73
2024/01/12 03:20:17;;;;;;;;;;;;;;;;;;5031925;28;20022;-73
2024/01/12 03:22:42;;;;;;;;;;;;;;;;;;5028888;28;19925;-73
2024/01/12 03:25:07;;;;;;;;;;;;;;;;;;5029241;28;20397;-73
2024/01/12 03:27:32;;;;;;;;;;;;;;;;;;5028827;28;20210;-73
2024/01/12 03:29:58;;;;;;;;;;;;;;;;;;5038102;28;19925;-73
2024/01/12 03:32:23;;;;;;;;;;;;;;;;;;5039740;28;20375;-73
2024/01/12 03:34:48;;;;;;;;;;;;;;;;;;5032556;28;20450;-74
2024/01/12 03:37:13;;;;;;;;;;;;;;;;;;5035583;28;19925;-73
2024/01/12 03:39:38;;;;;;;;;;;;;;;;;;5041421;28;19928;-73
2024/01/12 03:42:03;;;;;;;;;;;;;;;;;;5029461;28;19921;-73
2024/01/12 03:44:28;;;;;;;;;;;;;;;;;;5035702;28;20356;-73
2024/01/12 03:46:53;;;;;;;;;;;;;;;;;;5027879;28;20348;-74
2024/01/12 03:49:19;;;;;;;;;;;;;;;;;;5029277;28;19931;-73
2024/01/12 03:51:44;;;;;;;;;;;;;;;;;;5041545;28;20019;-73
2024/01/12 03:54:09;;;;;;;;;;;;;;;;;;5041259;28;19917;-74
2024/01/12 03:56:34;;;;;;;;;;;;;;;;;;5038879;28;20002;-73
2024/01/12 03:58:59;;;;;;;;;;;;;;;;;;5036471;28;20293;-73
2024/01/12 04:01:24;;;;;;;;;;;;;;;;;;5032537;28;20373;-72
2024/01/12 04:03:49;;;;;;;;;;;;;;;;;;5033007;28;19921;-72
2024/01/12 04:06:14;;;;;;;;;;;;;;;;;;5040707;28;19924;-73
2024/01/12 04:08:39;;;;;;;;;;;;;;;;;;5031132;28;19917;-72
2024/01/12 04:11:05;;;;;;;;;;;;;;;;;;5034848;28;19929;-73
2024/01/12 04:13:30;;;;;;;;;;;;;;;;;;5032889;28;19965;-73
2024/01/12 04:15:55;;;;;;;;;;;;;;;;;;5036953;28;19943;-73
2024/01/12 04:18:21;;;;;;;;;;;;;;;;;;5044491;28;20062;-73
2024/01/12 04:20:46;;;;;;;;;;;;;;;;;;5045123;28;20298;-73
2024/01/12 04:23:11;;;;;;;;;;;;;;;;;;5030999;28;20345;-73
2024/01/12 04:25:36;;;;;;;;;;;;;;;;;;5031072;28;20005;-72
2024/01/12 04:28:01;;;;;;;;;;;;;;;;;;5032476;28;19923;-72
2024/01/12 04:30:26;;;;;;;;;;;;;;;;;;5039836;28;19920;-72
2024/01/12 04:32:51;;;;;;;;;;;;;;;;;;5032563;28;19921;-72
2024/01/12 04:35:16;;;;;;;;;;;;;;;;;;5040934;28;19917;-73
2024/01/12 04:37:41;;;;;;;;;;;;;;;;;;5031888;28;20264;-73
2024/01/12 04:40:07;;;;;;;;;;;;;;;;;;5032030;28;19917;-73
2024/01/12 04:42:32;;;;;;;;;;;;;;;;;;5032087;28;19921;-73
2024/01/12 04:44:57;;;;;;;;;;;;;;;;;;5039463;28;20327;-73
2024/01/12 04:47:22;;;;;;;;;;;;;;;;;;5032219;28;20203;-73
2024/01/12 04:49:47;;;;;;;;;;;;;;;;;;5040476;28;20019;-73
2024/01/12 04:52:12;;;;;;;;;;;;;;;;;;5037997;28;19923;-73
2024/01/12 04:54:37;;;;;;;;;;;;;;;;;;5032615;28;19917;-73
2024/01/12 04:57:02;;;;;;;;;;;;;;;;;;5037400;28;20394;-72
2024/01/12 04:59:27;;;;;;;;;;;;;;;;;;5043305;28;20411;-73
2024/01/12 05:01:53;;;;;;;;;;;;;;;;;;5025573;28;19921;-72
2024/01/12 05:04:18;;;;;;;;;;;;;;;;;;5031506;28;20453;-73
2024/01/12 05:06:43;;;;;;;;;;;;;;;;;;5031119;28;20008;-73
2024/01/12 05:09:08;;;;;;;;;;;;;;;;;;5038102;28;19927;-73
2024/01/12 05:11:33;;;;;;;;;;;;;;;;;;5034771;28;19925;-73
2024/01/12 05:13:58;;;;;;;;;;;;;;;;;;5038074;28;19921;-73
2024/01/12 05:16:23;;;;;;;;;;;;;;;;;;5036998;28;19929;-73
2024/01/12 05:18:48;;;;;;;;;;;;;;;;;;5041587;28;19925;-73
2024/01/12 05:21:14;;;;;;;;;;;;;;;;;;5031047;28;19928;-73
2024/01/12 05:23:39;;;;;;;;;;;;;;;;;;5031077;28;19921;-72
2024/01/12 05:26:04;;;;;;;;;;;;;;;;;;5033704;28;19921;-72
2024/01/12 05:28:29;;;;;;;;;;;;;;;;;;5046446;28;19917;-72
2024/01/12 05:30:54;;;;;;;;;;;;;;;;;;5036019;28;19944;-72
2024/01/12 05:33:19;;;;;;;;;;;;;;;;;;5031111;28;20374;-74
2024/01/12 05:35:44;;;;;;;;;;;;;;;;;;5031023;28;19933;-74
2024/01/12 05:38:09;;;;;;;;;;;;;;;;;;5039616;28;19986;-74
2024/01/12 05:40:34;;;;;;;;;;;;;;;;;;5040138;28;19948;-74
2024/01/12 05:42:59;;;;;;;;;;;;;;;;;;5032424;28;19935;-74
2024/01/12 05:45:24;;;;;;;;;;;;;;;;;;5041680;28;19925;-73
2024/01/12 05:47:50;;;;;;;;;;;;;;;;;;5031107;28;20024;-74
2024/01/12 05:50:15;;;;;;;;;;;;;;;;;;5030495;28;19920;-73
2024/01/12 05:52:40;;;;;;;;;;;;;;;;;;5031076;28;19932;-73
2024/01/12 05:55:05;;;;;;;;;;;;;;;;;;5031153;28;19921;-74
2024/01/12 05:57:30;;;;;;;;;;;;;;;;;;5031337;28;19956;-73
2024/01/12 05:59:55;;;;;;;;;;;;;;;;;;5038398;28;20015;-72
2024/01/12 06:02:20;;;;;;;;;;;;;;;;;;5030823;28;20412;-73
2024/01/12 06:04:45;;;;;;;;;;;;;;;;;;5034086;28;19925;-73
2024/01/12 06:07:11;;;;;;;;;;;;;;;-145.28;100.00;87209.31;5035784;28;20008;-73
2024/01/12 06:09:36;;;;;;;;;;;;;;;;;;5032658;28;19967;-74
2024/01/12 06:12:01;;;;;;;;;;;;;;;;;;5033645;28;19963;-73
2024/01/12 06:14:26;;;;;;;;;;;;;;;;;;5034095;28;20275;-74
2024/01/12 06:16:52;;;;;;;;;;;;;;;;;;5031912;28;20279;-74
2024/01/12 06:19:17;;;;;;;;;;;;;;;;;;5039711;28;19927;-74
2024/01/12 06:21:42;;;;;;;;;;;;;;;;;;5041013;28;19928;-74
2024/01/12 06:24:07;;;;;;;;;;;;;;;;;;5038333;28;19925;-73
2024/01/12 06:26:32;;;;;;;;;;;;;;;;;;5030036;28;20035;-74
2024/01/12 06:28:58;;;;;;;;;;;;;;;;;;5032779;28;19970;-74
2024/01/12 06:31:23;;;;;;;;;;;;;;;;;;5035803;28;19921;-74
2024/01/12 06:33:48;;;;;;;;;;;;;;;;;;5035508;28;19921;-74
2024/01/12 06:36:13;;;;;;;;;;;;;;;;;;5026212;28;19984;-74
2024/01/12 06:38:38;;;;;;;;;;;;;;;;;;5025268;28;19979;-73
2024/01/12 06:41:03;;;;;;;;;;;;;;;;;;5030098;28;19921;-73
2024/01/12 06:43:28;;;;;;;;;;;;;;;;;;5026152;28;19948;-73
2024/01/12 06:45:53;;;;;;;;;;;;;;;;;;5032463;28;20420;-73
2024/01/12 06:48:19;;;;;;;;;;;;;;;;;;5047549;28;19928;-73
2024/01/12 06:50:44;;;;;;;;;;;;;;;;;;5029951;28;19941;-73
2024/01/12 06:53:09;;;;;;;;;;;;;;;;;;5032513;28;19921;-73
2024/01/12 06:55:34;;;;;;;;;;;;;;;;;;5023920;28;19921;-73
2024/01/12 06:57:59;;;;;;;;;;;;;;;;;;5022448;28;19936;-73
2024/01/12 07:00:24;;;;;;;;;;;;;;;;;;5015528;28;19988;-73
2024/01/12 07:02:49;;;;;;;;;;;;;;;;;;5023252;28;20506;-73
2024/01/12 07:05:14;;;;;;;;;;;;;;;;;;5024771;28;20052;-73
2024/01/12 07:07:39;;;;;;;;;;;;;;;;;;5027205;28;19929;-73
2024/01/12 07:10:05;;;;;;;;;;;;;;;;;;5029018;28;20023;-74
2024/01/12 07:12:30;;;;;;;;;;;;;;;;;;5038365;28;19917;-74
2024/01/12 07:14:55;;;;;;;;;;;;;;;;;;5028755;28;19921;-73
2024/01/12 07:17:20;;;;;;;;;;;;;;;;;;5029895;28;19917;-73
2024/01/12 07:19:47;;;;;;;;;;;;;;;;;;5037403;28;20301;-71
2024/01/12 07:22:13;;;;;;;;;;;;;;;;;;5027115;28;19968;-70
2024/01/12 07:24:38;;;;;;;;;;;;;;;;;;5029093;28;19964;-69
2024/01/12 07:27:03;;;;;;;;;;;;;;;;;;5029278;28;20000;-69
2024/01/12 07:29:28;;;;;;;;;;;;;;;;;;5029218;28;19921;-69
2024/01/12 07:31:54;;;;;;;;;;;;;;;;;;5029364;28;20404;-69
2024/01/12 07:34:19;;;;;;;;;;;;;;;;;;5028902;28;19925;-69
2024/01/12 07:36:44;;;;;;;;;;;;;;;;;;5028141;28;20019;-69
2024/01/12 07:39:10;;;;;;;;;;;;;;;;;;5029446;28;19991;-69
2024/01/12 07:41:35;;;;;;;;;;;;;;;;;;5029650;28;20378;-69
2024/01/12 07:44:00;;;;;;;;;;;;;;;;;;5029814;28;20354;-69
2024/01/12 07:46:25;;;;;;;;;;;;;;;;;;5029395;28;19932;-69
2024/01/12 07:48:51;;;;;;;;;;;;;;;;;;5036989;28;20274;-71
2024/01/12 07:51:16;;;;;;;;;;;;;;;;;;5028644;28;19925;-70
2024/01/12 07:53:42;;;;;;;;;;;;;;;;;;5029627;28;19970;-70
2024/01/12 07:56:07;;;;;;;;;;;;;;;;;;5027523;28;19917;-71
2024/01/12 07:58:32;;;;;;;;;;;;;;;;;;5033089;28;19917;-70
2024/01/12 08:00:57;;;;;;;;;;;;;;;;;;5031437;28;19924;-71
2024/01/12 08:03:23;;;;;;;;;;;;;;;;;;5033245;28;19921;-70
2024/01/12 08:05:48;;;;;;;;;;;;;;;;;;5032730;28;19925;-70
2024/01/12 08:08:14;;;;;;;;;;;;;;;;;;5032038;28;20400;-71
2024/01/12 08:10:39;;;;;;;;;;;;;;;;;;5029636;28;19921;-71
2024/01/12 08:13:05;;;;;;;;;;;;;;;;;;5033266;28;19922;-70
2024/01/12 08:15:30;;;;;;;;;;;;;;;;;;5033297;28;20386;-70
2024/01/12 08:17:55;;;;;;;;;;;;;;;;;;5032497;28;19940;-70
2024/01/12 08:20:20;;;;;;;;;;;;;;;;;;5032327;28;19917;-71
2024/01/12 08:22:45;;;;;;;;;;;;;;;;;;5032289;28;19928;-71
2024/01/12 08:25:10;;;;;;;;;;;;;;;;;;5031001;28;20366;-71
2024/01/12 08:27:36;;;;;;;;;;;;;;;;;;5032880;28;19921;-70
2024/01/12 08:30:01;;;;;;;;;;;;;;;;;;5032097;28;19921;-73
2024/01/12 08:32:26;;;;;;;;;;;;;;;;;;5031939;28;20052;-71
2024/01/12 08:34:51;;;;;;;;;;;;;;;;;;5032491;28;19917;-70
2024/01/12 08:37:16;;;;;;;;;;;;;;;;;;5032748;28;20282;-70
2024/01/12 08:39:41;;;;;;;;;;;;;;;;;;5032311;28;19925;-70
2024/01/12 08:42:07;;;;;;;;;;;;;;;;;;5032209;28;19917;-71
2024/01/12 08:44:32;;;;;;;;;;;;;;;;;;5032933;28;19987;-71
2024/01/12 08:46:57;;;;;;;;;;;;;;;;;;5032310;28;19952;-70
2024/01/12 08:49:23;;;;;;;;;;;;;;;;;;5032202;28;19925;-70
2024/01/12 08:51:48;;;;;;;;;;;;;;;;;;5032111;28;19925;-69
2024/01/12 08:54:13;;;;;;;;;;;;;;;;;;5031972;28;19923;-70
2024/01/12 08:56:38;;;;;;;;;;;;;;;;;;5032002;28;19921;-69
2024/01/12 08:59:03;;;;;;;;;;;;;;;;;;5032054;28;19963;-69
2024/01/12 09:01:28;;;;;;;;;;;;;;;;;;5032123;28;20473;-69
2024/01/12 09:03:53;;;;;;;;;;;;;;;;;;5032102;28;19917;-69
2024/01/12 09:06:18;;;;;;;;;;;;;;;;;;5031107;28;19988;-69
2024/01/12 09:08:43;;;;;;;;;;;;;;;;;;5029929;28;20340;-69
2024/01/12 09:11:08;;;;;;;;;;;;;;;;;;5032058;28;20386;-69
2024/01/12 09:13:33;;;;;;;;;;;;;;;;;;5033928;28;20012;-69
2024/01/12 09:15:59;;;;;;;;;;;;;;;;;;5031019;28;19925;-69
2024/01/12 09:18:24;;;;;;;;;;;;;;;;;;5031257;28;19921;-70
2024/01/12 09:20:49;;;;;;;;;;;;;;;;;;5032681;28;19917;-69
2024/01/12 09:23:14;;;;;;;;;;;;;;;;;;5038566;28;20011;-69
2024/01/12 09:25:40;;;;;;;;;;;;;;;;;;5031293;28;20344;-70
2024/01/12 09:28:05;;;;;;;;;;;;;;;;;;5030495;28;19963;-71
2024/01/12 09:30:30;;;;;;;;;;;;;;;;;;5031303;28;19917;-70
2024/01/12 09:32:55;;;;;;;;;;;;;;;;;;5031541;28;20000;-69
2024/01/12 09:35:20;;;;;;;;;;;;;;;;;;5031735;28;20115;-69
2024/01/12 09:37:45;;;;;;;;;;;;;;;;;;5031475;28;20397;-69
2024/01/12 09:40:10;;;;;;;;;;;;;;;;;;5035232;28;19948;-71
2024/01/12 09:42:35;;;;;;;;;;;;;;;;;;5043125;28;20007;-69
2024/01/12 09:45:00;;;;;;;;;;;;;;;;;;5033978;28;20317;-69
2024/01/12 09:47:26;;;;;;;;;;;;;;;;;;5037677;28;19923;-69
2024/01/12 09:49:51;;;;;;;;;;;;;;;;;;5033647;28;19921;-69
2024/01/12 09:52:16;;;;;;;;;;;;;;;;;;5030720;28;20289;-70
2024/01/12 09:54:41;;;;;;;;;;;;;;;;;;5031361;28;19948;-70
2024/01/12 09:57:07;;;;;;;;;;;;;;;;;;5030978;28;20000;-69
2024/01/12 09:59:32;;;;;;;;;;;;;;;;;;5031021;28;20007;-69
2024/01/12 10:01:57;;;;;;;;;;;;;;;;;;5031940;28;20039;-69
2024/01/12 10:04:22;;;;;;;;;;;;;;;;;;5030543;28;19921;-69
2024/01/12 10:06:47;;;;;;;;;;;;;;;;;;5030517;28;19917;-69
2024/01/12 10:09:12;;;;;;;;;;;;;;;;;;5030949;28;19917;-70
2024/01/12 10:11:37;;;;;;;;;;;;;;;;;;5037826;28;19918;-69
2024/01/12 10:14:04;;;;;;;;;;;;;;;;;;5022792;28;20391;-70
2024/01/12 10:16:29;;;;;;;;;;;;;;;;;;5038863;28;20016;-70
2024/01/12 10:18:54;;;;;;;;;;;;;;;;;;5030177;28;20331;-69
2024/01/12 10:21:20;;;;;;;;;;;;;;;;;;5038787;28;20017;-70
2024/01/12 10:23:45;;;;;;;;;;;;;;;;;;5028468;28;19921;-69
2024/01/12 10:26:10;;;;;;;;;;;;;;;;;;5029722;28;19917;-69
2024/01/12 10:28:35;;;;;;;;;;;;;;;;;;5030407;28;19924;-70
2024/01/12 10:31:00;;;;;;;;;;;;;;;;;;5030242;28;19917;-70
2024/01/12 10:33:25;;;;;;;;;;;;;;;;;;5030672;28;19918;-70
2024/01/12 10:35:50;;;;;;;;;;;;;;;;;;5029796;28;19925;-69
2024/01/12 10:38:16;;;;;;;;;;;;;;;;;;5033239;28;20214;-69
2024/01/12 10:40:41;;;;;;;;;;;;;;;;;;5030217;28;19917;-69
2024/01/12 10:43:06;;;;;;;;;;;;;;;;;;5032459;28;20535;-69
2024/01/12 10:45:31;;;;;;;;;;;;;;;;;;5033651;28;19933;-69
2024/01/12 10:47:56;;;;;;;;;;;;;;;;;;5026941;28;20001;-69
2024/01/12 10:50:21;;;;;;;;;;;;;;;;;;5029797;28;19928;-69
2024/01/12 10:52:46;;;;;;;;;;;;;;;;;;5027778;28;20236;-69
2024/01/12 10:55:13;;;;;;;;;;;;;;;;;;5022737;28;20382;-69
2024/01/12 10:57:38;;;;;;;;;;;;;;;;;;5027309;28;19917;-69
2024/01/12 11:00:05;;;;;;;;;;;;;;;;;;5028778;28;19996;-69
2024/01/12 11:02:30;;;;;;;;;;;;;;;;;;5048429;28;19992;-69
2024/01/12 11:04:56;;;;;;;;;;;;;;;;;;5048583;28;19924;-69
2024/01/12 11:07:21;;;;;;;;;;;;;;;;;;5048581;28;19928;-69
2024/01/12 11:09:46;;;;;;;;;;;;;;;;;;5050754;28;20007;-69
2024/01/12 11:12:11;;;;;;;;;;;;;;;;;;5048387;28;19924;-70
2024/01/12 11:14:36;;;;;;;;;;;;;;;;;;5048680;28;19924;-69
2024/01/12 11:17:01;;;;;;;;;;;;;;;;;;5048105;28;19939;-69
2024/01/12 11:19:27;;;;;;;;;;;;;;;;;;5047861;28;19936;-69
2024/01/12 11:21:53;;;;;;;;;;;;;;;;;;5047557;28;19987;-69
2024/01/12 11:24:18;;;;;;;;;;;;;;;;;;5047744;28;19975;-69
2024/01/12 11:26:43;;;;;;;;;;;;;;;;;;5048268;28;19917;-69
2024/01/12 11:29:08;;;;;;;;;;;;;;;;;;5048249;28;19975;-69
2024/01/12 11:31:33;;;;;;;;;;;;;;;;;;5047844;28;19924;-69
2024/01/12 11:34:00;;;;;;;;;;;;;;;;;;5048267;28;20310;-69
2024/01/12 11:36:25;;;;;;;;;;;;;;;;;;5047234;28;19928;-69
2024/01/12 11:38:55;;;;;;;;;;;;;;;;;;5048252;28;19920;-69
2024/01/12 11:41:20;;;;;;;;;;;;;;;;;;5044083;28;20281;-69
2024/01/12 11:43:45;;;;;;;;;;;;;;;;;;5049997;28;20414;-69
2024/01/12 11:46:10;;;;;;;;;;;;;;;;;;5048316;28;19916;-69
2024/01/12 11:48:35;;;;;;;;;;;;;;;;;;5046707;28;19921;-69
2024/01/12 11:51:00;;;;;;;;;;;;;;;;;;5047692;28;19924;-69
2024/01/12 11:53:25;;;;;;;;;;;;;;;;;;5048162;28;20337;-69
2024/01/12 11:55:50;;;;;;;;;;;;;;;;;;5047877;28;20362;-69
2024/01/12 11:58:16;;;;;;;;;;;;;;;;;;5048005;28;20374;-70
2024/01/12 12:00:41;;;;;;;;;;;;;;;;;;5049375;28;19916;-69
2024/01/12 12:03:06;;;;;;;;;;;;;;;;;;5048856;28;19921;-70
2024/01/12 12:05:31;;;;;;;;;;;;;;;;;;5049180;28;19966;-69
2024/01/12 12:07:56;;;;;;;;;;;;;;;;;;5048707;28;20575;-70
2024/01/12 12:10:21;;;;;;;;;;;;;;;;;;5048167;28;19995;-70
2024/01/12 12:12:46;;;;;;;;;;;;;;;;;;5048919;28;20439;-69
2024/01/12 12:15:12;;;;;;;;;;;;;;;;;;5048884;28;19917;-70
2024/01/12 12:17:37;;;;;;;;;;;;;;;;;;5048862;28;19922;-69
2024/01/12 12:20:03;;;;;;;;;;;;;;;;;;5046597;28;19927;-69
2024/01/12 12:22:28;;;;;;;;;;;;;;;;;;5048326;28;19925;-69
2024/01/12 12:24:53;;;;;;;;;;;;;;;;;;5046937;28;19928;-69
2024/01/12 12:27:18;;;;;;;;;;;;;;;;;;5047835;28;19927;-69
2024/01/12 12:29:44;;;;;;;;;;;;;;;;;;5050350;28;20289;-70
2024/01/12 12:32:09;;;;;;;;;;;;;;;;;;5048145;28;19924;-70
2024/01/12 12:34:34;;;;;;;;;;;;;;;;;;5048055;28;20282;-70
2024/01/12 12:36:59;;;;;;;;;;;;;;;;;;5048173;28;19924;-69
2024/01/12 12:39:24;;;;;;;;;;;;;;;;;;5048732;28;19948;-69
2024/01/12 12:41:52;;;;;;;;;;;;;;;;;;5048633;28;20186;-69
2024/01/12 12:44:18;;;;;;;;;;;;;;;;;;5044301;28;20032;-69
2024/01/12 12:46:43;;;;;;;;;;;;;;;;;;5037088;28;19999;-70
2024/01/12 12:49:09;;;;;;;;;;;;;;;;;;5033391;28;20538;-70
2024/01/12 12:51:34;;;;;;;;;;;;;;;;;;5031015;28;19921;-70
2024/01/12 12:53:59;;;;;;;;;;;;;;;;;;5031305;28;19921;-70
2024/01/12 12:56:25;;;;;;;;;;;;;;;;;;5031858;28;19917;-70
2024/01/12 12:58:50;;;;;;;;;;;;;;;;;;5031988;28;19971;-69
2024/01/12 13:01:16;;;;;;;;;;;;;;;;;;5032700;28;20011;-69
2024/01/12 13:03:41;;;;;;;;;;;;;;;;;;5031976;28;19917;-70
2024/01/12 13:06:06;;;;;;;;;;;;;;;;;;5030938;28;19936;-71
2024/01/12 13:08:31;;;;;;;;;;;;;;;;;;5031396;28;19928;-70
2024/01/12 13:10:56;;;;;;;;;;;;;;;;;;5031843;28;19921;-70
2024/01/12 13:13:21;;;;;;;;;;;;;;;;;;5031468;28;20087;-69
2024/01/12 13:15:46;;;;;;;;;;;;;;;;;;5031743;28;19918;-69
2024/01/12 13:18:11;;;;;;;;;;;;;;;;;;5030809;28;19944;-70
2024/01/12 13:20:36;;;;;;;;;;;;;;;;;;5031375;28;19917;-70
2024/01/12 13:23:01;;;;;;;;;;;;;;;;;;5031697;28;19967;-70
2024/01/12 13:25:27;;;;;;;;;;;;;;;;;;5031673;28;20408;-69
2024/01/12 13:27:52;;;;;;;;;;;;;;;;;;5031226;28;19921;-69
2024/01/12 13:30:17;;;;;;;;;;;;;;;;;;5031044;28;19991;-70
2024/01/12 13:32:42;;;;;;;;;;;;;;;;;;5029520;28;20289;-70
2024/01/12 13:35:07;;;;;;;;;;;;;;;;;;5031217;28;19921;-70
2024/01/12 13:37:32;;;;;;;;;;;;;;;;;;5031521;28;19921;-69
2024/01/12 13:39:58;;;;;;;;;;;;;;;;;;5030988;28;19925;-69
2024/01/12 13:42:24;;;;;;;;;;;;;;;;;;5039151;28;19970;-70
2024/01/12 13:44:49;;;;;;;;;;;;;;;;;;5034603;28;19925;-69
2024/01/12 13:47:14;;;;;;;;;;;;;;;;;;5030874;28;19917;-69
2024/01/12 13:49:39;;;;;;;;;;;;;;;;;;5031000;28;20370;-69
2024/01/12 13:52:04;;;;;;;;;;;;;;;;;;5030733;28;20340;-69
2024/01/12 13:54:29;;;;;;;;;;;;;;;;;;5029701;28;19928;-69
2024/01/12 13:56:54;;;;;;;;;;;;;;;;;;5029530;28;19921;-69
2024/01/12 13:59:20;;;;;;;;;;;;;;;;;;5030245;28;19917;-69
2024/01/12 14:01:45;;;;;;;;;;;;;;;;;;5030588;28;19925;-69
2024/01/12 14:04:10;;;;;;;;;;;;;;;;;;5029901;28;19929;-70
2024/01/12 14:06:36;;;;;;;;;;;;;;;;;;5030343;28;19921;-69
2024/01/12 14:09:04;;;;;;;;;;;;;;;;;;5030287;28;19966;-69
2024/01/12 14:11:29;;;;;;;;;;;;;;;;;;5030476;28;19944;-69
2024/01/12 14:13:56;;;;;;;;;;;;;;;;;;5030871;28;20310;-69
2024/01/12 14:16:21;;;;;;;;;;;;;;;;;;5029633;28;19924;-69
2024/01/12 14:18:46;;;;;;;;;;;;;;;;;;5029884;28;20114;-69
2024/01/12 14:21:11;;;;;;;;;;;;;;;;;;5030486;28;20289;-69
2024/01/12 14:23:36;;;;;;;;;;;;;;;;;;5028012;28;19921;-69
2024/01/12 14:26:02;;;;;;;;;;;;;;;;;;5026133;28;20433;-70
2024/01/12 14:28:28;;;;;;;;;;;;;;;;;;5029818;28;19917;-69
2024/01/12 14:30:53;;;;;;;;;;;;;;;;;;5030684;28;19917;-69
2024/01/12 14:33:18;;;;;;;;;;;;;;;;;;5030169;28;19924;-69
2024/01/12 14:35:43;;;;;;;;;;;;;;;;;;5030556;28;19924;-69
2024/01/12 14:38:08;;;;;;;;;;;;;;;;;;5029429;28;19921;-70
2024/01/12 14:40:33;;;;;;;;;;;;;;;;;;5030669;28;20314;-69
2024/01/12 14:42:58;;;;;;;;;;;;;;;;;;5030352;28;19917;-69
2024/01/12 14:45:24;;;;;;;;;;;;;;;;;;5033955;28;19928;-69
2024/01/12 14:47:49;;;;;;;;;;;;;;;;;;5028588;28;19929;-69
2024/01/12 14:50:14;;;;;;;;;;;;;;;;;;5031455;28;19933;-70
2024/01/12 14:52:40;;;;;;;;;;;;;;;;;;5024131;28;20006;-70
2024/01/12 14:55:05;;;;;;;;;;;;;;;;;;5025623;28;19921;-69
2024/01/12 14:57:30;;;;;;;;;;;;;;;;;;5027480;28;20297;-70
2024/01/12 14:59:55;;;;;;;;;;;;;;;;;;5017396;28;20024;-69
2024/01/12 15:02:21;;;;;;;;;;;;;;;;;;5018021;28;21422;-69
2024/01/12 15:04:47;;;;;;;;;;;;;;;;;;5016875;28;19980;-69
2024/01/12 15:07:12;;;;;;;;;;;;;;;;;;5019964;28;19925;-69
2024/01/12 15:09:37;;;;;;;;;;;;;;;;;;5025513;28;19928;-69
2024/01/12 15:12:03;;;;;;;;;;;;;;;;;;5022681;28;19921;-69
2024/01/12 15:14:28;;;;;;;;;;;;;;;;;;5029486;28;19994;-70
2024/01/12 15:16:53;;;;;;;;;;;;;;;;;;5025501;28;19952;-69
2024/01/12 15:19:19;;;;;;;;;;;;;;;;;;5030984;28;19974;-70
2024/01/12 15:21:44;;;;;;;;;;;;;;;;;;5029167;28;19933;-69
2024/01/12 15:24:09;;;;;;;;;;;;;;;;;;5031541;28;19975;-70
2024/01/12 15:26:36;;;;;;;;;;;;;;;;;;5022987;28;20378;-69
2024/01/12 15:29:01;;;;;;;;;;;;;;;;;;5024937;28;20485;-70
2024/01/12 15:31:26;;;;;;;;;;;;;;;;;;5029405;28;19917;-69
2024/01/12 15:33:52;;;;;;;;;;;;;;;;;;5029091;28;19927;-70
2024/01/12 15:36:17;;;;;;;;;;;;;;;;;;5022878;28;19933;-70
2024/01/12 15:38:42;;;;;;;;;;;;;;;;;;5029743;28;20336;-70
2024/01/12 15:41:07;;;;;;;;;;;;;;;;;;5021978;28;19928;-69
2024/01/12 15:43:32;;;;;;;;;;;;;;;;;;5023266;28;20015;-69
2024/01/12 15:45:58;;;;;;;;;;;;;;;;;;5022314;28;20419;-70
2024/01/12 15:48:23;;;;;;;;;;;;;;;;;;5019876;28;19966;-70
2024/01/12 15:50:49;;;;;;;;;;;;;;;;;;5026268;28;19925;-69
2024/01/12 15:53:14;;;;;;;;;;;;;;;;;;5025782;28;20412;-69
2024/01/12 15:55:39;;;;;;;;;;;;;;;;;;5024775;28;20121;-69
2024/01/12 15:58:04;;;;;;;;;;;;;;;;;;5026354;28;20608;-70
2024/01/12 16:00:29;;;;;;;;;;;;;;;;;;5022999;28;19929;-70
2024/01/12 16:02:54;;;;;;;;;;;;;;;;;;5021709;28;19921;-70
2024/01/12 16:05:19;;;;;;;;;;;;;;;;;;5024562;28;19936;-70
2024/01/12 16:07:45;;;;;;;;;;;;;;;;;;5027833;28;19920;-70
2024/01/12 16:10:10;;;;;;;;;;;;;;;;;;5028780;28;20429;-70
2024/01/12 16:12:35;;;;;;;;;;;;;;;;;;5028704;28;20000;-70
2024/01/12 16:15:00;;;;;;;;;;;;;;;;;;5029047;28;20297;-70
2024/01/12 16:17:25;;;;;;;;;;;;;;;;;;5029277;28;19917;-69
2024/01/12 16:19:50;;;;;;;;;;;;;;;;;;5032202;28;20073;-70
2024/01/12 16:22:15;;;;;;;;;;;;;;;;;;5031729;28;20379;-70
2024/01/12 16:24:40;;;;;;;;;;;;;;;;;;5032906;28;20298;-70
2024/01/12 16:27:05;;;;;;;;;;;;;;;;;;5032189;28;19936;-70
2024/01/12 16:29:33;;;;;;;;;;;;;;;;;;5034975;28;19917;-69